Time;durP1;ratioP1;P1;durP2;ratioP2;P2;SDS_P1;SDS_P2;PMS_P1;PMS_P2;Temp;Humidity;BMP_temperature;BMP_pressure;BME280_temperature;BME280_humidity;BME280_pressure;Samples;Min_cycle;Max_cycle;Signal;HPM_P1;HPM_P2
2022/06/16 00:00:29;;;;;;;4.45;3.80;;;13.10;99.90;;;;;;5032889;28;20469;-71
2022/06/16 00:02:55;;;;;;;6.18;4.15;;;13.10;99.90;;;;;;5049051;28;20048;-71
2022/06/16 00:05:24;;;;;;;4.55;3.65;;;13.00;99.90;;;;;;5032533;28;20395;-70
2022/06/16 00:07:50;;;;;;;5.68;3.67;;;13.10;99.90;;;;;;5049018;28;20112;-74
2022/06/16 00:10:16;;;;;;;6.40;3.92;;;13.10;99.90;;;;;;5049097;28;20077;-74
2022/06/16 00:12:42;;;;;;;7.55;4.30;;;13.00;99.90;;;;;;5048919;28;20048;-74
2022/06/16 00:15:12;;;;;;;5.55;3.88;;;13.00;99.90;;;;;;5050342;28;20041;-74
2022/06/16 00:17:37;;;;;;;5.22;3.90;;;13.00;99.90;;;;;;5048838;28;20171;-74
2022/06/16 00:20:04;;;;;;;5.25;4.20;;;13.00;99.90;;;;;;5049129;28;20128;-74
2022/06/16 00:22:31;;;;;;;6.10;4.20;;;13.00;99.90;;;;;;5048762;28;20089;-74
2022/06/16 00:24:57;;;;;;;6.43;4.13;;;13.00;99.90;;;;;;5048319;28;20486;-75
2022/06/16 00:27:22;;;;;;;7.07;3.90;;;13.00;99.90;;;;;;5048544;28;20064;-72
2022/06/16 00:29:48;;;;;;;7.97;4.25;;;13.00;99.90;;;;;;5048967;28;20126;-74
2022/06/16 00:32:14;;;;;;;6.15;4.15;;;13.00;99.90;;;;;;5048676;28;20033;-74
2022/06/16 00:34:39;;;;;;;6.18;4.00;;;13.00;99.90;;;;;;5049048;28;20051;-74
2022/06/16 00:37:05;;;;;;;5.40;3.88;;;12.90;99.90;;;;;;5032106;28;20043;-74
2022/06/16 00:39:31;;;;;;;5.88;4.25;;;12.90;99.90;;;;;;5049016;28;20049;-74
2022/06/16 00:42:06;;;;;;;5.60;3.60;;;12.80;99.90;;;;;;5048607;28;20474;-74
2022/06/16 00:44:32;;;;;;;4.82;3.90;;;12.60;99.90;;;;;;5048804;28;20052;-74
2022/06/16 00:46:57;;;;;;;7.32;4.10;;;12.40;99.90;;;;;;5048490;28;20045;-74
2022/06/16 00:49:25;;;;;;;5.28;4.20;;;12.40;99.90;;;;;;5049167;28;20045;-74
2022/06/16 00:51:55;;;;;;;7.35;3.90;;;12.40;99.90;;;;;;5048856;28;20099;-74
2022/06/16 00:54:32;;;;;;;4.50;3.50;;;12.40;99.90;;;;;;5048505;28;20495;-74
2022/06/16 00:57:04;;;;;;;5.65;3.70;;;12.40;99.90;;;;;;5048752;28;20055;-74
2022/06/16 00:59:35;;;;;;;5.70;3.88;;;12.40;99.90;;;;;;5048700;28;20053;-74
2022/06/16 01:02:03;;;;;;;5.13;3.95;;;12.30;99.90;;;;;;5048601;28;20584;-75
2022/06/16 01:07:15;;;;;;;5.20;3.92;;;12.30;99.90;;;;;;5048502;28;20037;-74
2022/06/16 01:09:43;;;;;;;6.30;4.38;;;12.20;99.90;;;;;;5049820;28;20036;-74
2022/06/16 01:15:37;;;;;;;8.50;4.25;;;12.10;99.90;;;;;;5048497;28;20053;-74
2022/06/16 01:18:20;;;;;;;4.95;4.25;;;12.10;99.90;;;;;;5048573;28;20033;-74
2022/06/16 01:21:04;;;;;;;5.85;4.00;;;12.10;99.90;;;;;;5048850;28;20083;-74
2022/06/16 01:23:52;;;;;;;7.50;4.93;;;12.00;99.90;;;;;;5048305;28;20140;-74
2022/06/16 01:26:53;;;;;;;5.40;4.18;;;12.00;99.90;;;;;;5048237;28;20044;-74
2022/06/16 01:29:43;;;;;;;6.90;3.97;;;11.90;99.90;;;;;;5048315;28;20048;-74
2022/06/16 01:32:21;;;;;;;4.85;3.95;;;11.90;99.90;;;;;;5048259;28;20044;-74
2022/06/16 01:35:10;;;;;;;6.03;4.53;;;11.90;99.90;;;;;;5048175;28;20045;-73
2022/06/16 01:37:58;;;;;;;5.55;4.60;;;11.90;99.90;;;;;;5050392;28;20037;-74
2022/06/16 01:40:48;;;;;;;11.25;5.00;;;11.90;99.90;;;;;;5051986;28;20084;-74
2022/06/16 01:43:27;;;;;;;7.10;4.35;;;11.90;99.90;;;;;;5051848;28;20506;-74
2022/06/16 01:46:22;;;;;;;6.55;4.78;;;11.90;99.90;;;;;;5051900;28;20098;-74
2022/06/16 01:48:50;;;;;;;4.60;4.10;;;11.90;99.90;;;;;;5051806;28;20045;-74
2022/06/16 01:51:24;;;;;;;6.43;4.82;;;12.00;99.90;;;;;;5051801;28;20041;-73
2022/06/16 01:54:13;;;;;;;5.45;4.50;;;12.00;99.90;;;;;;5051515;28;20442;-73
2022/06/16 01:56:50;;;;;;;5.68;4.03;;;12.00;99.90;;;;;;5051849;28;20049;-74
2022/06/16 01:59:21;;;;;;;5.97;4.57;;;12.00;99.90;;;;;;5051607;28;20044;-74
2022/06/16 02:01:52;;;;;;;5.35;4.32;;;12.10;99.90;;;;;;5051453;28;20049;-75
2022/06/16 02:04:28;;;;;;;7.05;4.88;;;12.10;99.90;;;;;;5034602;28;20048;-74
2022/06/16 02:06:59;;;;;;;6.15;4.55;;;12.00;99.90;;;;;;5034798;28;20056;-74
2022/06/16 02:09:37;;;;;;;5.47;4.90;;;12.00;99.90;;;;;;5051426;28;20076;-74
2022/06/16 02:12:05;;;;;;;7.18;4.80;;;11.80;99.90;;;;;;5034616;28;20044;-74
2022/06/16 02:14:44;;;;;;;4.95;4.32;;;11.70;99.90;;;;;;5051297;28;20044;-74
2022/06/16 02:17:10;;;;;;;5.90;4.00;;;11.80;99.90;;;;;;5051121;28;20083;-74
2022/06/16 02:19:36;;;;;;;5.22;4.28;;;11.80;99.90;;;;;;5034526;28;20048;-75
2022/06/16 02:22:02;;;;;;;6.20;4.78;;;11.80;99.90;;;;;;5050979;28;20048;-74
2022/06/16 02:24:30;;;;;;;5.07;4.57;;;11.90;99.90;;;;;;5050936;28;20133;-74
2022/06/16 02:26:58;;;;;;;6.35;4.65;;;11.90;99.90;;;;;;5051095;28;20166;-75
2022/06/16 02:29:30;;;;;;;5.35;4.40;;;12.00;99.90;;;;;;5051171;28;20132;-75
2022/06/16 02:32:23;;;;;;;8.63;5.05;;;12.00;99.90;;;;;;5034605;28;20431;-74
2022/06/16 02:35:33;;;;;;;13.15;5.13;;;12.10;99.90;;;;;;5034164;28;20045;-75
2022/06/16 02:38:18;;;;;;;5.55;5.00;;;12.10;99.90;;;;;;5050781;28;20045;-75
2022/06/16 02:41:08;;;;;;;5.82;5.18;;;12.10;99.90;;;;;;5050541;28;20056;-75
2022/06/16 02:44:13;;;;;;;6.38;4.50;;;12.00;99.90;;;;;;5033923;28;20506;-75
2022/06/16 02:46:53;;;;;;;5.25;4.75;;;12.00;99.90;;;;;;5050497;28;20084;-75
2022/06/16 02:49:31;;;;;;;5.45;4.65;;;12.00;99.90;;;;;;5050845;28;20052;-75
2022/06/16 02:52:07;;;;;;;7.80;4.90;;;11.90;99.90;;;;;;5050387;28;20073;-75
2022/06/16 02:54:55;;;;;;;5.63;5.05;;;11.70;99.90;;;;;;5033517;28;20072;-74
2022/06/16 02:57:31;;;;;;;7.00;5.22;;;11.60;99.90;;;;;;5050276;28;20517;-74
2022/06/16 03:00:10;;;;;;;7.03;4.75;;;11.60;99.90;;;;;;5050191;28;20091;-74
2022/06/16 03:02:39;;;;;;;6.93;4.95;;;11.70;99.90;;;;;;5033607;28;20047;-74
2022/06/16 03:05:05;;;;;;;6.00;5.03;;;11.60;99.90;;;;;;5049969;28;20103;-74
2022/06/16 03:07:34;;;;;;;7.00;5.55;;;11.60;99.90;;;;;;5050066;28;20116;-74
2022/06/16 03:10:00;;;;;;;7.68;5.85;;;11.60;99.90;;;;;;5050148;28;20051;-74
2022/06/16 03:12:26;;;;;;;6.43;5.60;;;11.70;99.90;;;;;;5033342;28;20043;-74
2022/06/16 03:14:52;;;;;;;6.53;5.90;;;11.70;99.90;;;;;;5050057;28;20036;-74
2022/06/16 03:17:17;;;;;;;8.85;5.97;;;11.70;99.90;;;;;;5049906;28;20092;-74
2022/06/16 03:19:44;;;;;;;10.00;5.85;;;11.60;99.90;;;;;;5050098;28;20051;-74
2022/06/16 03:22:10;;;;;;;5.75;5.15;;;11.60;99.90;;;;;;5033210;28;20044;-73
2022/06/16 03:24:36;;;;;;;6.03;5.20;;;11.70;99.90;;;;;;5049627;28;20037;-74
2022/06/16 03:27:02;;;;;;;6.80;4.85;;;11.70;99.90;;;;;;5049942;28;20036;-73
2022/06/16 03:29:28;;;;;;;5.35;4.85;;;11.80;99.90;;;;;;5049592;28;20486;-74
2022/06/16 03:31:54;;;;;;;7.15;5.10;;;11.80;99.90;;;;;;5033096;28;20138;-74
2022/06/16 03:34:21;;;;;;;6.97;5.30;;;11.80;99.90;;;;;;5049547;28;20041;-74
2022/06/16 03:36:47;;;;;;;15.85;6.68;;;11.90;99.90;;;;;;5049447;28;20045;-74
2022/06/16 03:39:13;;;;;;;8.80;5.80;;;11.90;99.90;;;;;;5049769;28;20422;-74
2022/06/16 03:41:39;;;;;;;6.47;5.03;;;11.90;99.90;;;;;;5032859;28;20102;-73
2022/06/16 03:44:04;;;;;;;6.38;5.60;;;12.00;99.90;;;;;;5049574;28;20064;-74
2022/06/16 03:46:30;;;;;;;6.82;5.65;;;12.00;99.90;;;;;;5049372;28;20064;-75
2022/06/16 03:48:56;;;;;;;6.78;5.13;;;12.10;99.90;;;;;;5049550;28;20483;-74
2022/06/16 03:51:22;;;;;;;6.38;5.18;;;12.20;99.90;;;;;;5049382;28;20383;-74
2022/06/16 03:53:47;;;;;;;7.38;5.38;;;12.10;99.90;;;;;;5049310;28;20056;-74
2022/06/16 03:56:14;;;;;;;8.80;6.25;;;12.10;99.90;;;;;;5049280;28;20048;-74
2022/06/16 03:58:40;;;;;;;7.78;6.13;;;12.20;99.90;;;;;;5049301;28;20040;-74
2022/06/16 04:01:06;;;;;;;9.57;5.30;;;12.20;99.90;;;;;;5032400;28;20171;-74
2022/06/16 04:06:16;;;;;;;6.57;5.53;;;12.20;99.90;;;;;;5048967;28;20041;-75
2022/06/16 04:08:42;;;;;;;6.53;5.32;;;12.20;99.90;;;;;;5049154;28;20045;-75
2022/06/16 04:11:26;;;;;;;7.80;5.85;;;12.30;99.90;;;;;;5049155;28;20194;-74
2022/06/16 04:13:53;;;;;;;9.23;5.10;;;12.30;99.90;;;;;;5049269;28;20049;-75
2022/06/16 04:16:19;;;;;;;9.18;5.43;;;12.30;99.90;;;;;;5048870;28;20033;-74
2022/06/16 04:18:44;;;;;;;7.90;6.13;;;12.30;99.90;;;;;;5048947;28;20379;-74
2022/06/16 04:21:10;;;;;;;9.95;6.35;;;12.20;99.90;;;;;;5048834;28;20130;-75
2022/06/16 04:23:37;;;;;;;6.35;5.68;;;12.20;99.90;;;;;;5032331;28;20398;-74
2022/06/16 04:26:04;;;;;;;7.57;5.95;;;12.30;99.90;;;;;;5048677;28;20348;-75
2022/06/16 04:28:29;;;;;;;7.10;5.97;;;12.40;99.90;;;;;;5049181;28;20040;-74
2022/06/16 04:30:56;;;;;;;6.18;5.55;;;12.50;99.90;;;;;;5048753;28;20496;-74
2022/06/16 04:33:22;;;;;;;9.68;5.50;;;12.60;99.90;;;;;;5049052;28;20037;-74
2022/06/16 04:35:47;;;;;;;8.40;5.93;;;12.70;99.90;;;;;;5048925;28;20048;-74
2022/06/16 04:38:13;;;;;;;8.40;6.35;;;12.80;99.90;;;;;;5048670;28;20045;-75
2022/06/16 04:40:38;;;;;;;9.45;6.55;;;13.00;99.90;;;;;;5048578;28;20033;-74
2022/06/16 04:43:04;;;;;;;10.10;6.10;;;13.00;99.90;;;;;;5048764;28;20073;-75
2022/06/16 04:45:30;;;;;;;8.43;6.22;;;13.10;99.90;;;;;;5048680;28;20082;-74
2022/06/16 04:47:55;;;;;;;9.05;5.68;;;13.30;99.90;;;;;;5031941;28;20044;-74
2022/06/16 04:50:21;;;;;;;9.30;5.75;;;13.30;99.90;;;;;;5031966;28;20060;-74
2022/06/16 04:52:47;;;;;;;8.43;5.70;;;13.50;99.90;;;;;;5048840;28;20037;-75
2022/06/16 04:55:15;;;;;;;8.60;5.30;;;13.70;99.90;;;;;;5031899;28;20053;-74
2022/06/16 04:57:40;;;;;;;8.05;4.88;;;13.90;99.90;;;;;;5048633;28;20048;-74
2022/06/16 05:00:07;;;;;;;6.28;5.03;;;14.10;99.90;;;;;;5048763;28;20045;-74
2022/06/16 05:02:32;;;;;;;7.28;4.85;;;14.20;99.90;;;;;;5048414;28;20083;-75
2022/06/16 05:04:58;;;;;;;7.03;4.80;;;14.20;99.90;;;;;;5048779;28;20045;-75
2022/06/16 05:07:23;;;;;;;5.88;4.40;;;14.40;99.90;;;;;;5049605;28;20048;-74
2022/06/16 05:09:49;;;;;;;5.82;3.95;;;14.50;99.90;;;;;;5049022;28;20037;-74
2022/06/16 05:12:15;;;;;;;7.68;4.53;;;14.70;99.90;;;;;;5049899;28;20044;-74
2022/06/16 05:14:40;;;;;;;6.30;3.78;;;15.00;99.90;;;;;;5052509;28;20076;-74
2022/06/16 05:17:06;;;;;;;16.17;4.00;;;15.20;99.90;;;;;;5035442;28;20041;-73
2022/06/16 05:19:32;;;;;;;6.78;3.50;;;15.40;99.90;;;;;;5052401;28;20044;-75
2022/06/16 05:22:00;;;;;;;8.63;3.70;;;15.50;99.90;;;;;;5051993;28;20045;-75
2022/06/16 05:24:26;;;;;;;4.97;3.45;;;15.70;99.90;;;;;;5052025;28;20055;-75
2022/06/16 05:26:51;;;;;;;6.13;3.45;;;15.80;99.90;;;;;;5051840;28;20036;-75
2022/06/16 05:29:19;;;;;;;5.40;2.95;;;15.90;99.90;;;;;;5052222;28;20048;-75
2022/06/16 05:31:45;;;;;;;4.45;3.03;;;16.00;99.90;;;;;;5051859;28;20045;-75
2022/06/16 05:34:10;;;;;;;7.72;2.92;;;16.10;99.90;;;;;;5051837;28;20052;-75
2022/06/16 05:36:36;;;;;;;6.88;2.90;;;16.10;99.90;;;;;;5053089;28;20048;-75
2022/06/16 05:39:02;;;;;;;4.70;3.30;;;16.10;99.90;;;;;;5051819;28;20041;-74
2022/06/16 05:41:28;;;;;;;6.00;3.00;;;16.00;99.90;;;;;;5051860;28;20067;-74
2022/06/16 05:43:53;;;;;;;6.03;2.85;;;16.20;99.90;;;;;;5051782;28;20155;-74
2022/06/16 05:46:24;;;;;;;7.25;3.42;;;16.30;99.90;;;;;;5052904;28;20079;-74
2022/06/16 05:48:51;;;;;;;6.35;3.03;;;16.30;99.90;;;;;;5051551;28;20049;-75
2022/06/16 05:51:18;;;;;;;4.30;2.75;;;16.50;99.90;;;;;;5051506;28;20049;-75
2022/06/16 05:53:44;;;;;;;5.40;2.75;;;16.80;99.90;;;;;;5051303;28;20040;-75
2022/06/16 05:56:10;;;;;;;4.88;2.60;;;17.60;99.90;;;;;;5051480;28;20056;-75
2022/06/16 05:58:36;;;;;;;5.32;3.03;;;18.40;99.90;;;;;;5051377;28;20049;-75
2022/06/16 06:01:02;;;;;;;4.38;3.00;;;18.80;99.90;;;;;;5052766;28;20036;-74
2022/06/16 06:03:28;;;;;;;5.43;2.80;;;19.10;99.90;;;;;;5051152;28;20033;-75
2022/06/16 06:05:54;;;;;;;4.63;2.50;;;18.90;99.90;;;;;;5051508;28;20044;-75
2022/06/16 06:16:39;;;;;;;3.35;2.03;;;23.80;98.50;;;;;;5051303;28;20060;-75
2022/06/16 06:19:23;;;;;;;4.53;2.58;;;24.90;97.20;;;;;;5050884;28;20044;-75
2022/06/16 06:22:06;;;;;;;3.42;2.45;;;25.40;92.40;;;;;;5051056;28;20118;-75
2022/06/16 06:24:38;;;;;;;4.28;2.17;;;26.20;93.40;;;;;;5049874;28;20161;-76
2022/06/16 06:27:05;;;;;;;;;;;25.90;90.40;;;;;;5034825;28;20442;-74
2022/06/16 06:29:31;;;;;;;2.42;1.75;;;26.30;85.40;;;;;;5051122;28;20366;-76
2022/06/16 06:31:57;;;;;;;2.47;1.45;;;26.90;87.60;;;;;;5034211;28;20149;-75
2022/06/16 06:34:24;;;;;;;3.13;1.35;;;26.50;83.90;;;;;;5050905;28;20141;-75
2022/06/16 06:36:49;;;;;;;2.38;1.33;;;26.90;81.40;;;;;;5050688;28;20044;-75
2022/06/16 06:39:15;;;;;;;2.58;1.00;;;27.80;80.80;;;;;;5050597;28;20041;-76
2022/06/16 06:41:41;;;;;;;2.67;0.80;;;27.40;75.20;;;;;;5050693;28;20052;-76
2022/06/16 06:44:06;;;;;;;2.83;1.02;;;25.80;72.10;;;;;;5050511;28;20395;-75
2022/06/16 06:46:32;;;;;;;1.80;0.85;;;26.20;73.60;;;;;;5050544;28;20387;-76
2022/06/16 06:48:57;;;;;;;2.65;1.13;;;27.10;73.80;;;;;;5050439;28;20135;-76
2022/06/16 06:51:23;;;;;;;2.67;0.80;;;27.60;72.10;;;;;;5050488;28;20128;-76
2022/06/16 06:53:49;;;;;;;1.60;0.90;;;27.50;68.40;;;;;;5033511;28;20041;-76
2022/06/16 06:56:14;;;;;;;3.17;0.90;;;26.30;69.50;;;;;;5050326;28;20048;-75
2022/06/16 06:58:41;;;;;;;3.13;1.23;;;26.90;72.40;;;;;;5050122;28;20059;-75
2022/06/16 07:01:07;;;;;;;2.35;0.90;;;27.40;71.70;;;;;;5050606;28;20037;-76
2022/06/16 07:03:33;;;;;;;2.10;1.00;;;26.70;69.50;;;;;;5050306;28;20045;-76
2022/06/16 07:06:04;;;;;;;3.35;1.40;;;27.00;69.70;;;;;;5050104;28;20048;-76
2022/06/16 07:08:31;;;;;;;3.78;1.67;;;25.90;67.40;;;;;;5049892;28;20041;-76
2022/06/16 07:10:57;;;;;;;2.40;1.13;;;24.70;69.10;;;;;;5049883;28;20037;-75
2022/06/16 07:13:24;;;;;;;3.03;1.15;;;25.50;70.60;;;;;;5050222;28;20033;-75
2022/06/16 07:15:50;;;;;;;2.67;1.20;;;26.70;70.00;;;;;;5049901;28;20040;-75
2022/06/16 07:18:15;;;;;;;2.90;1.33;;;27.40;69.90;;;;;;5049896;28;20043;-75
2022/06/16 07:20:41;;;;;;;3.30;1.08;;;27.90;67.90;;;;;;5049740;28;20402;-76
2022/06/16 07:23:06;;;;;;;3.90;1.08;;;27.60;67.20;;;;;;5049821;28;20113;-75
2022/06/16 07:25:32;;;;;;;3.03;1.13;;;27.90;67.60;;;;;;5049665;28;20041;-76
2022/06/16 07:27:58;;;;;;;2.72;0.90;;;27.80;66.80;;;;;;5049695;28;20033;-76
2022/06/16 07:30:24;;;;;;;3.38;1.10;;;28.10;66.30;;;;;;5049604;28;20151;-75
2022/06/16 07:32:50;;;;;;;2.78;1.10;;;28.60;63.90;;;;;;5049658;28;20087;-75
2022/06/16 07:35:19;;;;;;;3.05;1.17;;;29.10;65.50;;;;;;5049389;28;20114;-75
2022/06/16 07:37:45;;;;;;;2.72;1.42;;;28.90;62.40;;;;;;5049570;28;20367;-76
2022/06/16 07:40:13;;;;;;;2.95;1.35;;;29.20;60.30;;;;;;5049604;28;20040;-76
2022/06/16 07:42:39;;;;;;;3.42;1.33;;;28.40;60.80;;;;;;5049689;28;20044;-75
2022/06/16 07:45:06;;;;;;;2.13;0.82;;;28.80;60.10;;;;;;5049387;28;20044;-75
2022/06/16 07:47:31;;;;;;;2.83;1.20;;;29.00;61.30;;;;;;5032852;28;20728;-75
2022/06/16 07:49:57;;;;;;;2.10;0.95;;;29.20;60.60;;;;;;5049212;28;20037;-75
2022/06/16 07:52:23;;;;;;;3.38;1.02;;;28.80;59.60;;;;;;5032720;28;20033;-75
2022/06/16 07:54:49;;;;;;;2.50;1.00;;;29.10;61.90;;;;;;5049128;28;20049;-74
2022/06/16 07:57:17;;;;;;;2.42;1.13;;;29.20;61.60;;;;;;5049314;28;20048;-74
2022/06/16 07:59:43;;;;;;;4.38;1.30;;;28.20;58.40;;;;;;5049298;28;20690;-75
2022/06/16 08:02:09;;;;;;;5.03;1.52;;;28.80;60.00;;;;;;5050594;28;20047;-76
2022/06/16 08:04:34;;;;;;;3.15;1.30;;;28.40;60.20;;;;;;5032653;28;20036;-76
2022/06/16 08:07:03;;;;;;;3.05;1.35;;;29.10;59.20;;;;;;5049190;28;20056;-76
2022/06/16 08:09:33;;;;;;;3.65;1.50;;;28.00;58.30;;;;;;5049072;28;20132;-76
2022/06/16 08:12:03;;;;;;;1.80;0.98;;;27.80;59.00;;;;;;5049439;28;20368;-74
2022/06/16 08:14:32;;;;;;;2.92;1.52;;;26.80;62.30;;;;;;5049240;28;20116;-76
2022/06/16 08:16:58;;;;;;;3.88;1.20;;;25.00;61.20;;;;;;5049243;28;20469;-75
2022/06/16 08:19:24;;;;;;;2.28;1.10;;;25.30;64.70;;;;;;5048887;28;20136;-74
2022/06/16 08:21:50;;;;;;;4.30;1.80;;;25.00;65.80;;;;;;5049017;28;20060;-75
2022/06/16 08:24:16;;;;;;;5.45;1.35;;;24.60;65.30;;;;;;5049032;28;20049;-75
2022/06/16 08:26:43;;;;;;;2.55;1.20;;;23.90;64.30;;;;;;5032364;28;20087;-75
2022/06/16 08:29:11;;;;;;;2.03;0.90;;;23.40;64.50;;;;;;5049147;28;20057;-75
2022/06/16 08:31:37;;;;;;;3.08;1.15;;;23.60;65.60;;;;;;5049006;28;20517;-75
2022/06/16 08:34:03;;;;;;;4.93;1.20;;;23.60;67.20;;;;;;5049147;28;20076;-75
2022/06/16 08:36:29;;;;;;;3.80;1.58;;;23.50;68.10;;;;;;5048694;28;20124;-75
2022/06/16 08:38:55;;;;;;;2.72;1.45;;;23.10;65.10;;;;;;5048982;28;20079;-75
2022/06/16 08:41:32;;;;;;;2.92;1.60;;;22.60;66.40;;;;;;5048754;28;20080;-75
2022/06/16 08:44:11;;;;;;;2.42;1.30;;;22.60;68.90;;;;;;5048752;28;20398;-76
2022/06/16 08:46:51;;;;;;;3.67;1.65;;;22.60;68.40;;;;;;5032580;28;20058;-75
2022/06/16 08:49:35;;;;;;;3.33;1.65;;;22.60;69.50;;;;;;5052872;28;20077;-74
2022/06/16 08:52:21;;;;;;;3.25;1.35;;;22.40;69.50;;;;;;5052661;28;20067;-75
2022/06/16 08:54:53;;;;;;;3.53;1.50;;;22.20;72.10;;;;;;5052534;28;20076;-75
2022/06/16 08:57:51;;;;;;;2.85;1.55;;;22.10;70.60;;;;;;5052581;28;20057;-75
2022/06/16 09:00:21;;;;;;;2.10;1.20;;;22.40;71.40;;;;;;5018813;28;20060;-75
2022/06/16 09:03:00;;;;;;;8.80;2.13;;;22.40;72.30;;;;;;5052760;28;20037;-74
2022/06/16 09:05:58;;;;;;;1.83;1.50;;;21.80;71.10;;;;;;5052342;28;20045;-74
2022/06/16 09:09:07;;;;;;;3.22;1.92;;;21.10;72.70;;;;;;5052376;28;20473;-75
2022/06/16 09:11:44;;;;;;;3.75;1.75;;;21.20;73.70;;;;;;5038114;28;20057;-75
2022/06/16 09:17:41;;;;;;;4.50;1.80;;;21.20;74.50;;;;;;5052121;28;20053;-75
2022/06/16 09:20:34;;;;;;;4.00;1.90;;;21.40;74.00;;;;;;5052281;28;20486;-75
2022/06/16 09:23:25;;;;;;;5.18;1.65;;;21.90;74.80;;;;;;5052376;28;20071;-75
2022/06/16 09:26:09;;;;;;;3.33;2.35;;;22.00;75.30;;;;;;5052018;28;20049;-75
2022/06/16 09:28:51;;;;;;;4.43;1.70;;;22.00;72.40;;;;;;5051985;28;20052;-75
2022/06/16 09:31:33;;;;;;;4.07;1.70;;;21.90;73.20;;;;;;5051921;28;20052;-75
2022/06/16 09:34:06;;;;;;;4.85;2.00;;;22.00;73.60;;;;;;5052316;28;20632;-75
2022/06/16 09:36:37;;;;;;;3.83;1.98;;;21.80;73.50;;;;;;5051792;28;20049;-75
2022/06/16 09:39:12;;;;;;;3.50;1.85;;;21.70;75.10;;;;;;5051965;28;20055;-75
2022/06/16 09:44:49;;;;;;;3.55;1.85;;;22.00;73.00;;;;;;5051670;28;20087;-75
2022/06/16 09:47:19;;;;;;;2.58;1.90;;;21.90;75.20;;;;;;5051743;28;20037;-75
2022/06/16 09:49:50;;;;;;;3.60;2.20;;;22.10;73.90;;;;;;5051812;28;20055;-75
2022/06/16 09:52:44;;;;;;;4.20;2.15;;;22.50;73.80;;;;;;5051869;28;20612;-75
2022/06/16 09:55:28;;;;;;;4.13;2.25;;;22.90;74.50;;;;;;5049973;28;20084;-75
2022/06/16 09:58:00;;;;;;;3.90;1.70;;;23.10;73.10;;;;;;5051451;28;20406;-75
2022/06/16 10:00:33;;;;;;;4.13;2.22;;;23.10;73.40;;;;;;5051750;28;20052;-75
2022/06/16 10:03:03;;;;;;;4.28;2.08;;;23.30;73.20;;;;;;5051281;28;20048;-75
2022/06/16 10:05:40;;;;;;;4.00;2.40;;;23.30;72.00;;;;;;5051435;28;20045;-75
2022/06/16 10:08:40;;;;;;;5.10;2.80;;;23.50;73.80;;;;;;5051175;28;20041;-74
2022/06/16 10:11:16;;;;;;;3.22;2.38;;;23.00;72.90;;;;;;5048395;28;20057;-75
2022/06/16 10:13:58;;;;;;;4.25;2.88;;;22.70;73.00;;;;;;5052560;28;20125;-75
2022/06/16 10:16:34;;;;;;;3.20;2.28;;;22.40;75.10;;;;;;5051099;28;20037;-75
2022/06/16 10:19:00;;;;;;;4.70;2.53;;;22.80;75.10;;;;;;5051191;28;20041;-75
2022/06/16 10:21:26;;;;;;;3.85;2.33;;;22.80;72.80;;;;;;5051316;28;20550;-75
2022/06/16 10:23:57;;;;;;;6.38;2.50;;;22.90;74.40;;;;;;5051209;28;20045;-73
2022/06/16 10:26:22;;;;;;;3.78;2.58;;;22.70;72.90;;;;;;5051197;28;20063;-75
2022/06/16 10:29:27;;;;;;;5.60;2.70;;;23.10;74.00;;;;;;5050828;28;20040;-75
2022/06/16 10:31:56;;;;;;;4.80;2.50;;;23.00;73.30;;;;;;5050496;28;20048;-75
2022/06/16 10:34:39;;;;;;;3.83;2.53;;;23.30;73.20;;;;;;5051018;28;20407;-76
2022/06/16 10:37:25;;;;;;;5.47;2.53;;;23.40;72.90;;;;;;5050722;28;20048;-75
2022/06/16 10:39:55;;;;;;;6.90;2.70;;;23.50;70.20;;;;;;5050754;28;20079;-74
2022/06/16 10:42:27;;;;;;;4.00;2.28;;;23.50;71.80;;;;;;5050589;28;20122;-75
2022/06/16 10:44:56;;;;;;;;;;;23.40;70.10;;;;;;5051085;28;20076;-75
2022/06/16 10:47:30;;;;;;;5.05;3.17;;;23.20;71.80;;;;;;5033877;28;19962;-75
2022/06/16 10:49:56;;;;;;;4.75;2.70;;;23.20;71.20;;;;;;5050690;28;20510;-74
2022/06/16 10:52:38;;;;;;;4.90;3.08;;;23.30;72.50;;;;;;5050351;28;20037;-75
2022/06/16 10:55:29;;;;;;;4.57;2.90;;;22.90;68.80;;;;;;5050334;28;20051;-75
2022/06/16 10:58:06;;;;;;;4.55;3.03;;;22.60;69.10;;;;;;5050326;28;20052;-74
2022/06/16 11:00:34;;;;;;;3.83;2.80;;;23.00;71.40;;;;;;5050312;28;20084;-75
2022/06/16 11:03:05;;;;;;;4.03;2.85;;;23.20;72.20;;;;;;5050182;28;20055;-75
2022/06/16 11:05:54;;;;;;;7.80;2.92;;;23.10;73.00;;;;;;5033844;28;20060;-75
2022/06/16 11:08:21;;;;;;;4.35;2.80;;;23.60;73.90;;;;;;5050117;28;20062;-75
2022/06/16 11:10:56;;;;;;;3.45;2.28;;;23.70;72.40;;;;;;5049706;28;20546;-76
2022/06/16 11:13:37;;;;;;;5.28;2.75;;;23.70;73.10;;;;;;5033599;28;20147;-75
2022/06/16 11:16:20;;;;;;;4.53;2.63;;;23.80;70.20;;;;;;5050258;28;20048;-74
2022/06/16 11:18:46;;;;;;;4.53;2.80;;;23.90;68.20;;;;;;5050075;28;20037;-74
2022/06/16 11:21:18;;;;;;;4.60;2.67;;;23.80;70.10;;;;;;5050262;28;20405;-75
2022/06/16 11:23:50;;;;;;;2.88;2.45;;;23.90;71.50;;;;;;5049888;28;20041;-75
2022/06/16 11:26:32;;;;;;;;;;;24.00;71.80;;;;;;5050689;28;20070;-74
2022/06/16 11:29:23;;;;;;;4.55;2.30;;;24.10;72.40;;;;;;5049936;28;19925;-75
2022/06/16 11:32:10;;;;;;;3.40;2.20;;;23.10;69.80;;;;;;5030762;28;20057;-74
2022/06/16 11:34:39;;;;;;;5.72;2.22;;;23.30;73.50;;;;;;5049656;28;20072;-74
2022/06/16 11:37:08;;;;;;;4.80;2.72;;;23.40;73.70;;;;;;5049571;28;20087;-74
2022/06/16 11:40:04;;;;;;;4.18;2.50;;;23.60;71.80;;;;;;5051017;28;20114;-75
2022/06/16 11:42:50;;;;;;;4.03;2.40;;;23.70;70.80;;;;;;5040659;28;20087;-75
2022/06/16 11:45:16;;;;;;;4.15;2.72;;;23.40;69.80;;;;;;5049616;28;20033;-74
2022/06/16 11:47:50;;;;;;;3.35;2.25;;;24.10;72.30;;;;;;5049577;28;20039;-74
2022/06/16 11:50:54;;;;;;;5.50;2.80;;;24.40;71.30;;;;;;5049593;28;20037;-75
2022/06/16 11:53:56;;;;;;;5.63;2.65;;;24.60;71.00;;;;;;5032681;28;20057;-75
2022/06/16 11:56:32;;;;;;;3.78;2.63;;;24.90;68.40;;;;;;5049465;28;20230;-75
2022/06/16 11:59:10;;;;;;;4.82;3.00;;;25.20;67.60;;;;;;5049177;28;20041;-75
2022/06/16 12:01:48;;;;;;;3.97;2.50;;;25.30;67.80;;;;;;5049307;28;20039;-75
2022/06/16 12:04:37;;;;;;;5.18;2.30;;;25.20;70.20;;;;;;5049088;28;20037;-75
2022/06/16 12:07:25;;;;;;;6.45;2.50;;;25.10;68.40;;;;;;5049380;28;20466;-75
2022/06/16 12:10:32;;;;;;;4.25;2.10;;;24.90;66.00;;;;;;5060610;22;20060;-75
2022/06/16 12:13:04;;;;;;;3.95;2.58;;;25.00;67.70;;;;;;5052525;28;20539;-74
2022/06/16 12:16:04;;;;;;;5.03;2.53;;;25.20;66.30;;;;;;5052175;28;20657;-75
2022/06/16 12:18:38;;;;;;;5.00;2.92;;;24.50;68.20;;;;;;5052231;28;20079;-75
2022/06/16 12:21:17;;;;;;;2.75;2.13;;;24.40;67.10;;;;;;5052167;28;20052;-75
2022/06/16 12:23:48;;;;;;;3.13;2.40;;;24.50;68.00;;;;;;5052294;28;20052;-74
2022/06/16 12:26:23;;;;;;;5.38;2.58;;;24.90;70.40;;;;;;5070361;28;20040;-75
2022/06/16 12:29:13;;;;;;;7.07;2.75;;;24.80;63.70;;;;;;5035374;28;20033;-74
2022/06/16 12:31:52;;;;;;;5.53;2.60;;;25.00;62.00;;;;;;5052523;28;20432;-75
2022/06/16 12:34:57;;;;;;;3.22;1.88;;;24.70;65.40;;;;;;5052102;28;20124;-74
2022/06/16 12:37:31;;;;;;;2.40;1.98;;;24.60;63.40;;;;;;5052065;28;20165;-74
2022/06/16 12:40:22;;;;;;;3.38;2.42;;;24.10;64.30;;;;;;5035376;28;20121;-74
2022/06/16 12:42:54;;;;;;;4.05;2.33;;;24.20;65.20;;;;;;5051466;28;20052;-75
2022/06/16 12:45:25;;;;;;;5.05;2.55;;;24.50;68.20;;;;;;5052211;28;20070;-74
2022/06/16 12:48:01;;;;;;;4.43;2.50;;;24.90;69.20;;;;;;5052083;28;20040;-75
2022/06/16 12:50:53;;;;;;;3.92;2.50;;;24.90;65.00;;;;;;5051821;28;20478;-75
2022/06/16 12:53:26;;;;;;;2.92;2.60;;;25.00;64.50;;;;;;5052063;28;20123;-75
2022/06/16 12:56:03;;;;;;;3.00;2.20;;;25.00;64.50;;;;;;5051846;28;20119;-75
2022/06/16 12:58:34;;;;;;;6.78;2.80;;;25.10;65.20;;;;;;5035303;28;20044;-75
2022/06/16 13:01:06;;;;;;;3.85;2.42;;;25.40;66.60;;;;;;5051842;28;20048;-75
2022/06/16 13:03:34;;;;;;;3.25;2.38;;;25.00;64.10;;;;;;5068837;28;20195;-75
2022/06/16 13:06:02;;;;;;;3.50;1.98;;;24.70;62.90;;;;;;5051809;28;20048;-75
2022/06/16 13:08:32;;;;;;;3.63;2.42;;;24.60;65.90;;;;;;5051505;28;20139;-76
2022/06/16 13:11:04;;;;;;;3.95;2.70;;;24.70;69.50;;;;;;5068460;28;20059;-73
2022/06/16 13:13:44;;;;;;;3.50;2.17;;;24.90;65.30;;;;;;5052115;28;20189;-73
2022/06/16 13:16:14;;;;;;;3.10;2.42;;;24.20;66.00;;;;;;5068624;28;20436;-74
2022/06/16 13:18:50;;;;;;;4.45;2.40;;;24.20;67.30;;;;;;5068411;28;20052;-74
2022/06/16 13:21:23;;;;;;;4.55;2.80;;;24.30;68.10;;;;;;5051700;28;20116;-74
2022/06/16 13:23:55;;;;;;;4.60;2.83;;;24.50;68.30;;;;;;5035508;28;20040;-74
2022/06/16 13:26:30;;;;;;;8.00;2.60;;;24.70;67.30;;;;;;5051510;28;20052;-73
2022/06/16 13:29:05;;;;;;;3.67;2.55;;;24.40;65.40;;;;;;5051602;28;20037;-74
2022/06/16 13:31:42;;;;;;;5.07;2.30;;;24.40;65.20;;;;;;5051775;28;20037;-74
2022/06/16 13:34:08;;;;;;;4.75;2.47;;;24.30;67.40;;;;;;5054377;28;20029;-74
2022/06/16 13:36:33;;;;;;;3.88;2.40;;;24.20;67.30;;;;;;5055484;28;20119;-74
2022/06/16 13:39:00;;;;;;;3.92;2.58;;;24.30;66.10;;;;;;5055441;28;20040;-74